• Join FlightAware (Why Join?)
  • Login
  • US Flag 
09:07PM EDT


 

Airport Tracker/Info


-or-


 

Live Flight TrackerFlight Track Log ✈ DAL6036 ✈ 27-Apr-2013 ✈ KRIC - KDTW

Flight Track Log - Related Links

Times and Time Zones

All times are in EDT time to prevent confusion due to time zone crossing. See the DAL6036 flight status page for this flight to view local times or setup timezone preferences in your user account.

Time Position Orientation Groundspeed Altitude Reporting Facility
EDT Latitude Longitude Course Direction KTS MPH feet Rate Location/Type
04:50PM 37.5333 -77.3500 253° West 183 211 2,100  Level Potomac TRACON
04:51PM 37.5439 -77.4253 280° West 192 221 4,200 2,220 Climbing Washington Center
04:52PM 37.4108 -77.6656 257° West  Level FlightAware Approximate
04:52PM 37.5178 -77.5058 248° West 210 242 7,000  Level Washington Center
04:53PM 37.3890 -77.7856 257° West  Level FlightAware Approximate
04:53PM 37.4892 -77.5914 247° West 244 281 9,600  Level Washington Center
04:54PM 37.3638 -77.9045 254° West  Level FlightAware Approximate
04:54PM 37.4564 -77.6847 246° West 273 314 11,000  Level Washington Center
04:55PM 37.3480 -78.0248 253° West  Level FlightAware Approximate
04:55PM 37.4211 -77.7911 247° West 308 354 12,200  Level Washington Center
04:56PM 37.3833 -77.9050 247° West 340 391 13,900 1,980 Climbing Washington Center
04:57PM 37.3478 -78.0267 250° West 357 411 16,300 1,800 Climbing Washington Center
04:58PM 37.3222 -78.1461 255° West 357 411 17,600 1,080 Climbing Washington Center
04:59PM 37.3008 -78.2653 257° West 352 405 18,500 1,080 Climbing Washington Center
05:00PM 37.3233 -78.3811 284° West 338 389 19,800 1,020 Climbing Washington Center
05:01PM 37.3942 -78.4647 317° Northwest 332 382 20,600 1,020 Climbing Washington Center
05:02PM 37.4669 -78.5592 314° West 359 413 21,900 1,320 Climbing Washington Center
05:03PM 37.5419 -78.6483 317° Northwest 364 419 23,200 1,320 Climbing Washington Center
05:04PM 37.6228 -78.7539 314° West 369 425 24,600 1,320 Climbing Washington Center
05:05PM 37.6956 -78.8408 317° Northwest 371 427 25,900 1,200 Climbing Washington Center
05:06PM 37.7658 -78.9333 314° West 371 427 27,000 1,020 Climbing Washington Center
05:07PM 37.8364 -79.0233 315° West 366 421 28,000 1,140 Climbing Washington Center
05:08PM 37.8967 -79.1050 313° West 366 421 29,300 960 Climbing Washington Center
05:09PM 37.9244 -79.2219 287° West 343 395 30,000 300 Climbing Washington Center
05:10PM 37.9478 -79.3469 283° West 350 403 30,000  Level Washington Center
05:11PM 37.9725 -79.4878 283° West 374 430 30,000  Level Washington Center
05:12PM 37.9931 -79.6181 281° West 379 436 30,000  Level Washington Center
05:13PM 38.0158 -79.7458 283° West 373 429 30,000  Level Washington Center
05:14PM 38.0347 -79.8603 282° West 373 429 30,000  Level Washington Center
05:15PM 38.0572 -79.9881 283° West 373 429 30,000  Level Washington Center
05:17PM 38.1094 -80.2942 282° West 370 426 30,000  Level Indianapolis Center
05:18PM 38.1308 -80.4228 282° West 374 430 30,000  Level Indianapolis Center
05:19PM 38.1558 -80.5772 282° West 372 428 30,000  Level Indianapolis Center
05:20PM 38.1842 -80.7028 286° West 372 428 30,000  Level Indianapolis Center
05:21PM 38.2681 -80.7883 321° Northwest 383 441 30,000  Level Indianapolis Center
05:22PM 38.3583 -80.8644 327° Northwest 388 447 30,000  Level Indianapolis Center
05:23PM 38.4494 -80.9392 327° Northwest 390 449 30,000  Level Indianapolis Center
05:24PM 38.5403 -81.0144 327° Northwest 390 449 30,000  Level Indianapolis Center
05:25PM 38.6308 -81.0911 327° Northwest 392 451 30,000  Level Indianapolis Center
05:26PM 38.7219 -81.1664 327° Northwest 394 453 30,000  Level Indianapolis Center
05:28PM 38.8297 -81.2575 327° Northwest 390 449 30,000  Level Indianapolis Center
05:29PM 38.9242 -81.3275 330° Northwest 399 459 30,000  Level Indianapolis Center
05:30PM 39.0300 -81.3708 342° North 402 463 30,000  Level Indianapolis Center
05:31PM 39.1358 -81.4153 342° North 403 464 30,000  Level Indianapolis Center
05:32PM 39.2442 -81.4589 343° North 407 468 30,000  Level Indianapolis Center
05:33PM 39.3517 -81.5044 342° North 407 468 30,000  Level Indianapolis Center
05:34PM 39.4828 -81.5586 342° North 412 474 30,000  Level Indianapolis Center
05:35PM 39.5911 -81.6053 342° North 410 472 30,000  Level Indianapolis Center
05:36PM 39.7028 -81.6525 342° North 411 473 30,000  Level Indianapolis Center
05:37PM 39.8119 -81.6967 343° North 409 471 30,000  Level Indianapolis Center
05:38PM 39.9208 -81.7439 342° North 409 471 30,000  Level Indianapolis Center
05:39PM 40.0286 -81.7894 342° North 406 467 30,000  Level Indianapolis Center
05:40PM 40.1375 -81.8353 342° North 407 468 30,000  Level Indianapolis Center
05:41PM 40.2467 -81.8825 342° North 403 464 30,000  Level Indianapolis Center
05:42PM 40.3539 -81.9292 342° North 402 463 30,000  Level Indianapolis Center
05:43PM 40.4611 -81.9747 342° North 400 460 30,000  Level Indianapolis Center
05:44PM 40.5722 -82.0169 344° North 411 473 30,000  Level Indianapolis Center
05:45PM 40.7097 -82.0419 352° North 425 489 30,000  Level Indianapolis Center
05:46PM 40.8281 -82.0625 353° North 425 489 30,000  Level Indianapolis Center
05:47PM 40.9514 -82.0869 351° North 425 489 30,000 -180 Level Cleveland Center
05:48PM 41.0700 -82.1061 353° North 425 489 29,700 -1,200 Descending Cleveland Center
05:49PM 41.1864 -82.1308 351° North 425 489 27,600 -2,400 Descending Cleveland Center
05:50PM 41.3050 -82.1558 351° North 431 496 25,000 -2,700 Descending Cleveland Center
05:51PM 41.4019 -82.2386 327° Northwest 415 478 22,300 -2,520 Descending Cleveland Center
05:52PM 41.4650 -82.3428 309° West 399 459 20,000 -2,520 Descending Cleveland Center
05:53PM 41.5381 -82.4639 309° West 393 452 17,300 -2,760 Descending Cleveland Center
05:54PM 41.6008 -82.5658 309° West 388 447 14,800 -2,640 Descending Cleveland Center
05:55PM 41.6636 -82.6789 307° West 380 437 12,200 -1,440 Descending Cleveland Center
05:56PM 41.7344 -82.7925 310° West 370 426 11,900 -120 Descending Cleveland Center
05:57PM 41.8117 -82.8872 318° Northwest 361 415 12,000  Climbing Cleveland Center
05:58PM 41.8808 -82.9706 318° Northwest 350 403 11,900  Descending Cleveland Center
05:59PM 41.9500 -83.0542 318° Northwest 246 283 12,000  Climbing Cleveland Center
06:00PM 41.9928 -83.0947 325° Northwest 274 315 11,900 -480 Descending Cleveland Center
06:01PM 42.0542 -83.1531 325° Northwest 262 302 11,200 -540 Descending Cleveland Center
06:02PM 42.1133 -83.2058 327° Northwest 262 302 10,900 -240 Descending Cleveland Center
06:02PM 42.1319 -83.2208 329° Northwest 253 291 10,900 -720 Level Cleveland Center
06:03PM 42.1878 -83.2342 350° North 241 277 10,100 -1,080 Descending Cleveland Center
06:04PM 42.2492 -83.1919 27° Northeast 245 282 8,900 -600 Descending Cleveland Center
06:05PM 42.3064 -83.1550 26° Northeast 231 266 8,900  Level Cleveland Center
06:06PM 42.3700 -83.1097 28° Northeast 236 272 8,900  Level Cleveland Center
06:07PM 42.4267 -83.0811 20° North 207 238 9,000 -420 Climbing Cleveland Center
06:08PM 42.4544 -83.1469 300° West 193 222 8,100 -1,140 Descending Cleveland Center
06:09PM 42.4283 -83.1964 234° Southwest 174 200 6,800 -1,260 Descending Cleveland Center
06:10PM 42.3822 -83.2142 196° South 177 204 5,700 -1,140 Descending Cleveland Center